Time;durP1;ratioP1;P1;durP2;ratioP2;P2;SDS_P1;SDS_P2;PMS_P1;PMS_P2;Temp;Humidity;BMP_temperature;BMP_pressure;BME280_temperature;BME280_humidity;BME280_pressure;Samples;Min_cycle;Max_cycle;Signal;HPM_P1;HPM_P2
2022/12/02 00:00:21;;;;;;;54.67;26.30;;;4.10;99.90;;;;;;5074723;28;20075;-76
2022/12/02 00:02:48;;;;;;;63.53;27.92;;;4.00;99.90;;;;;;5074683;28;20504;-74
2022/12/02 00:05:13;;;;;;;45.63;23.83;;;4.10;99.90;;;;;;5074214;28;20122;-75
2022/12/02 00:07:39;;;;;;;45.70;23.10;;;4.10;99.90;;;;;;5068202;28;20063;-75
2022/12/02 00:10:30;;;;;;;43.97;21.48;;;4.10;99.90;;;;;;5073361;28;20359;-77
2022/12/02 00:13:18;;;;;;;48.65;23.88;;;4.10;99.90;;;;;;5074960;28;20028;-76
2022/12/02 00:15:46;;;;;;;42.80;21.17;;;4.10;99.90;;;;;;5074338;28;20064;-76
2022/12/02 00:18:14;;;;;;;54.83;26.95;;;4.10;99.90;;;;;;5073407;28;20111;-76
2022/12/02 00:20:41;;;;;;;48.83;23.42;;;4.10;99.90;;;;;;5067905;28;20085;-76
2022/12/02 00:23:07;;;;;;;55.15;26.50;;;4.10;99.90;;;;;;5074263;28;20030;-76
2022/12/02 00:25:33;;;;;;;57.25;24.52;;;4.20;99.90;;;;;;5074829;28;20036;-76
2022/12/02 00:27:59;;;;;;;54.00;24.13;;;4.20;99.90;;;;;;5074937;28;20016;-76
2022/12/02 00:30:25;;;;;;;52.40;23.33;;;4.20;99.90;;;;;;5074112;28;20021;-75
2022/12/02 00:32:51;;;;;;;46.28;21.88;;;4.20;99.90;;;;;;5074219;28;20025;-76
2022/12/02 00:35:17;;;;;;;51.22;22.00;;;4.20;99.90;;;;;;5074311;28;20051;-75
2022/12/02 00:37:43;;;;;;;40.58;17.38;;;4.20;99.90;;;;;;5074151;28;20025;-77
2022/12/02 00:40:10;;;;;;;37.70;18.77;;;4.10;99.90;;;;;;5074101;28;20095;-76
2022/12/02 00:42:36;;;;;;;43.33;20.48;;;4.10;99.90;;;;;;5074101;28;20038;-76
2022/12/02 00:47:46;;;;;;;37.47;17.02;;;4.10;99.90;;;;;;5073955;28;20031;-75
2022/12/02 00:50:11;;;;;;;36.33;17.55;;;4.10;99.90;;;;;;5072740;28;20017;-75
2022/12/02 00:52:37;;;;;;;43.42;16.88;;;4.20;99.90;;;;;;5073910;28;20036;-76
2022/12/02 00:55:04;;;;;;;48.65;17.70;;;4.10;99.90;;;;;;5073663;28;20371;-76
2022/12/02 00:57:29;;;;;;;33.45;13.75;;;4.10;99.90;;;;;;5073651;28;20086;-76
2022/12/02 00:59:55;;;;;;;33.75;14.38;;;4.10;99.90;;;;;;5073959;28;20024;-75
2022/12/02 01:02:21;;;;;;;35.00;14.55;;;4.10;99.90;;;;;;5073805;28;20028;-75
2022/12/02 01:04:47;;;;;;;30.17;13.23;;;4.00;99.90;;;;;;5073302;28;20025;-77
2022/12/02 01:07:13;;;;;;;31.23;12.30;;;4.10;99.90;;;;;;5073900;28;20060;-77
2022/12/02 01:09:40;;;;;;;29.60;12.68;;;4.10;99.90;;;;;;5073327;28;20033;-76
2022/12/02 01:12:06;;;;;;;24.75;11.18;;;4.10;99.90;;;;;;5073760;28;20100;-76
2022/12/02 01:14:32;;;;;;;22.70;9.63;;;4.10;99.90;;;;;;5073293;28;20063;-76
2022/12/02 01:16:58;;;;;;;25.25;11.05;;;4.10;99.90;;;;;;5073220;28;20059;-75
2022/12/02 01:19:24;;;;;;;24.83;11.60;;;4.00;99.90;;;;;;5073277;28;20447;-75
2022/12/02 01:21:50;;;;;;;23.67;10.48;;;4.00;99.90;;;;;;5072817;28;20111;-75
2022/12/02 01:24:16;;;;;;;28.10;11.77;;;4.00;99.90;;;;;;5073508;28;20099;-76
2022/12/02 01:26:41;;;;;;;34.90;13.48;;;4.00;99.90;;;;;;5072848;28;20459;-76
2022/12/02 01:29:07;;;;;;;33.75;14.20;;;4.00;99.90;;;;;;5073212;28;20455;-75
2022/12/02 01:31:33;;;;;;;40.92;14.68;;;4.00;99.90;;;;;;5073561;28;20366;-75
2022/12/02 01:33:59;;;;;;;35.40;14.05;;;4.00;99.90;;;;;;5073478;28;20029;-75
2022/12/02 01:36:25;;;;;;;44.08;15.50;;;4.00;99.90;;;;;;5073060;28;20470;-75
2022/12/02 01:38:51;;;;;;;36.35;13.60;;;4.00;99.90;;;;;;5072986;28;20028;-76
2022/12/02 01:41:17;;;;;;;54.05;19.25;;;4.00;99.90;;;;;;5072860;28;20028;-76
2022/12/02 01:43:43;;;;;;;43.33;17.83;;;4.00;99.90;;;;;;5073220;28;20029;-76
2022/12/02 01:46:09;;;;;;;34.15;14.65;;;4.00;99.90;;;;;;5073061;28;20090;-76
2022/12/02 01:48:36;;;;;;;31.08;14.25;;;4.00;99.90;;;;;;5072951;28;20016;-75
2022/12/02 01:51:03;;;;;;;33.55;15.18;;;4.00;99.90;;;;;;5072762;28;20081;-76
2022/12/02 01:53:28;;;;;;;28.85;12.82;;;4.10;99.90;;;;;;5073233;28;20039;-76
2022/12/02 01:55:54;;;;;;;29.15;14.48;;;4.10;99.90;;;;;;5073311;28;20017;-76
2022/12/02 01:58:25;;;;;;;27.05;14.40;;;4.00;99.90;;;;;;5071788;28;20054;-76
2022/12/02 02:00:53;;;;;;;31.42;16.08;;;4.00;99.90;;;;;;5072756;28;20024;-76
2022/12/02 02:03:19;;;;;;;31.15;14.18;;;4.00;99.90;;;;;;5072562;28;20417;-74
2022/12/02 02:05:46;;;;;;;32.67;13.52;;;4.00;99.90;;;;;;5072710;28;20162;-77
2022/12/02 02:08:12;;;;;;;25.35;12.80;;;4.00;99.90;;;;;;5072699;28;20024;-75
2022/12/02 02:10:39;;;;;;;23.73;12.68;;;4.00;99.90;;;;;;5073011;28;20021;-76
2022/12/02 02:13:07;;;;;;;21.15;10.95;;;4.00;99.90;;;;;;5073164;28;20024;-76
2022/12/02 02:15:34;;;;;;;20.73;11.98;;;3.90;99.90;;;;;;5076625;28;20553;-76
2022/12/02 02:18:00;;;;;;;25.23;12.75;;;3.90;99.90;;;;;;5076488;28;20417;-76
2022/12/02 02:20:26;;;;;;;29.02;14.20;;;3.90;99.90;;;;;;5076760;28;20034;-75
2022/12/02 02:23:00;;;;;;;33.90;16.25;;;3.90;99.90;;;;;;5076613;28;20028;-76
2022/12/02 02:25:26;;;;;;;40.88;18.08;;;3.90;99.90;;;;;;5076373;28;20020;-76
2022/12/02 02:27:58;;;;;;;39.63;16.48;;;3.90;99.90;;;;;;5077014;28;20410;-76
2022/12/02 02:30:26;;;;;;;36.70;16.38;;;3.90;99.90;;;;;;5077179;28;20023;-76
2022/12/02 02:32:52;;;;;;;35.30;17.00;;;3.90;99.90;;;;;;5076285;28;20535;-75
2022/12/02 02:35:19;;;;;;;31.13;14.77;;;3.90;99.90;;;;;;5076583;28;20078;-76
2022/12/02 02:37:47;;;;;;;32.10;13.93;;;3.90;99.90;;;;;;5076562;28;20036;-77
2022/12/02 02:40:15;;;;;;;33.83;14.77;;;3.90;99.90;;;;;;5076241;28;20021;-78
2022/12/02 02:42:43;;;;;;;40.40;16.02;;;3.90;99.90;;;;;;5076365;28;20029;-76
2022/12/02 02:45:10;;;;;;;33.22;16.00;;;3.90;99.90;;;;;;5076340;28;20475;-76
2022/12/02 02:47:36;;;;;;;37.08;16.95;;;3.90;99.90;;;;;;5076203;28;20107;-76
2022/12/02 02:50:02;;;;;;;34.03;15.85;;;3.90;99.90;;;;;;5076157;28;20100;-76
2022/12/02 02:52:28;;;;;;;31.05;15.43;;;3.90;99.90;;;;;;5076390;28;20103;-76
2022/12/02 02:54:53;;;;;;;31.45;14.45;;;3.80;99.90;;;;;;5076248;28;20035;-77
2022/12/02 02:57:19;;;;;;;28.33;13.70;;;3.90;99.90;;;;;;5075815;28;20095;-76
2022/12/02 02:59:48;;;;;;;32.90;14.20;;;3.80;99.90;;;;;;5074710;28;20044;-77
2022/12/02 03:02:14;;;;;;;36.25;15.23;;;3.80;99.90;;;;;;5076374;28;20027;-75
2022/12/02 03:04:41;;;;;;;31.00;15.43;;;3.90;99.90;;;;;;5075823;28;20045;-75
2022/12/02 03:07:07;;;;;;;29.90;14.82;;;3.90;99.90;;;;;;5075796;28;20023;-77
2022/12/02 03:09:34;;;;;;;37.70;15.32;;;3.90;99.90;;;;;;5076204;28;20454;-76
2022/12/02 03:12:00;;;;;;;38.63;16.52;;;3.90;99.90;;;;;;5076033;28;20028;-76
2022/12/02 03:14:27;;;;;;;34.03;16.45;;;3.90;99.90;;;;;;5076058;28;20528;-77
2022/12/02 03:16:53;;;;;;;39.08;17.60;;;3.90;99.90;;;;;;5075949;28;20032;-76
2022/12/02 03:19:19;;;;;;;39.05;16.23;;;4.00;99.90;;;;;;5074445;28;20078;-76
2022/12/02 03:21:46;;;;;;;44.70;18.63;;;4.00;99.90;;;;;;5075258;28;20032;-76
2022/12/02 03:24:12;;;;;;;47.83;19.05;;;4.00;99.90;;;;;;5075156;28;20027;-77
2022/12/02 03:26:39;;;;;;;47.90;18.88;;;4.00;99.90;;;;;;5073341;28;20036;-78
2022/12/02 03:29:06;;;;;;;32.10;16.65;;;4.00;99.90;;;;;;5068806;28;20569;-75
2022/12/02 03:31:33;;;;;;;49.83;23.92;;;4.10;99.90;;;;;;5075208;28;20455;-76
2022/12/02 03:33:59;;;;;;;52.70;23.02;;;4.00;99.90;;;;;;5075490;28;20020;-74
2022/12/02 03:36:26;;;;;;;51.33;21.23;;;4.00;99.90;;;;;;5075259;28;20021;-75
2022/12/02 03:38:52;;;;;;;33.28;15.65;;;4.00;99.90;;;;;;5075124;28;20108;-76
2022/12/02 03:41:19;;;;;;;34.65;15.55;;;4.00;99.90;;;;;;5075067;28;20099;-76
2022/12/02 03:43:45;;;;;;;44.90;16.40;;;4.00;99.90;;;;;;5074834;28;20052;-76
2022/12/02 03:46:11;;;;;;;48.00;18.60;;;4.00;99.90;;;;;;5074855;28;20032;-76
2022/12/02 03:48:38;;;;;;;35.92;14.98;;;4.00;99.90;;;;;;5075361;28;20067;-76
2022/12/02 03:51:04;;;;;;;35.08;16.13;;;4.10;99.90;;;;;;5075117;28;20447;-76
2022/12/02 03:53:30;;;;;;;40.30;16.95;;;4.00;99.90;;;;;;5075229;28;20382;-76
2022/12/02 03:55:56;;;;;;;29.90;13.75;;;4.00;99.90;;;;;;5075193;28;20031;-76
2022/12/02 03:58:54;;;;;;;41.15;17.05;;;4.00;99.90;;;;;;5075081;28;20021;-76
2022/12/02 04:01:21;;;;;;;41.08;17.83;;;4.00;99.90;;;;;;5074953;28;20020;-75
2022/12/02 04:03:47;;;;;;;57.47;19.70;;;4.00;99.90;;;;;;5074530;28;20033;-76
2022/12/02 04:06:13;;;;;;;43.28;16.88;;;4.00;99.90;;;;;;5068190;28;20020;-76
2022/12/02 04:08:40;;;;;;;48.55;19.10;;;4.00;99.90;;;;;;5074612;28;20150;-76
2022/12/02 04:11:06;;;;;;;48.78;19.92;;;4.00;99.90;;;;;;5073371;28;20016;-76
2022/12/02 04:13:31;;;;;;;48.88;19.15;;;4.00;99.90;;;;;;5073405;28;20374;-76
2022/12/02 04:15:57;;;;;;;37.10;15.52;;;4.00;99.90;;;;;;5074507;28;20037;-75
2022/12/02 04:18:23;;;;;;;52.72;21.85;;;3.90;99.90;;;;;;5073409;28;20024;-75
2022/12/02 04:20:49;;;;;;;53.28;19.70;;;4.00;99.90;;;;;;5074201;28;20021;-77
2022/12/02 04:23:15;;;;;;;42.80;15.45;;;4.00;99.90;;;;;;5074081;28;20479;-77
2022/12/02 04:25:40;;;;;;;51.42;17.25;;;4.00;99.90;;;;;;5074414;28;20411;-75
2022/12/02 04:28:06;;;;;;;36.22;15.20;;;4.00;99.90;;;;;;5074295;28;20424;-76
2022/12/02 04:30:32;;;;;;;42.55;21.38;;;4.00;99.90;;;;;;5073796;28;20359;-75
2022/12/02 04:32:58;;;;;;;35.53;17.08;;;4.00;99.90;;;;;;5073282;28;20032;-76
2022/12/02 04:35:23;;;;;;;27.77;13.13;;;4.00;99.90;;;;;;5074205;28;20024;-76
2022/12/02 04:37:53;;;;;;;44.17;20.58;;;4.00;99.90;;;;;;5073656;28;20101;-77
2022/12/02 04:40:20;;;;;;;41.65;14.75;;;4.00;99.90;;;;;;5066358;28;20028;-76
2022/12/02 04:42:45;;;;;;;33.83;14.35;;;3.90;99.90;;;;;;5073859;28;20065;-74
2022/12/02 04:45:11;;;;;;;34.35;15.02;;;3.90;99.90;;;;;;5074066;28;20032;-77
2022/12/02 04:47:37;;;;;;;34.28;15.20;;;3.90;99.90;;;;;;5073827;28;20049;-76
2022/12/02 04:50:04;;;;;;;35.30;15.25;;;3.90;99.90;;;;;;5073802;28;20406;-77
2022/12/02 04:52:30;;;;;;;36.25;15.32;;;3.90;99.90;;;;;;5073995;28;20025;-76
2022/12/02 04:54:56;;;;;;;36.65;16.27;;;3.90;99.90;;;;;;5074022;28;20028;-76
2022/12/02 04:57:22;;;;;;;36.50;14.60;;;4.00;99.90;;;;;;5074100;28;20032;-76
2022/12/02 04:59:48;;;;;;;32.92;12.82;;;4.00;99.90;;;;;;5074028;28;20376;-76
2022/12/02 05:02:13;;;;;;;22.77;11.18;;;3.90;99.90;;;;;;5072707;28;20094;-76
2022/12/02 05:04:39;;;;;;;28.20;13.20;;;3.90;99.90;;;;;;5073650;28;20039;-76
2022/12/02 05:07:05;;;;;;;36.55;14.13;;;3.90;99.90;;;;;;5071633;28;20116;-76
2022/12/02 05:09:31;;;;;;;32.88;15.60;;;3.90;99.90;;;;;;5073300;28;20483;-76
2022/12/02 05:11:56;;;;;;;43.17;16.98;;;3.90;99.90;;;;;;5073286;28;20035;-75
2022/12/02 05:14:22;;;;;;;59.67;22.70;;;3.80;99.90;;;;;;5073366;28;20024;-76
2022/12/02 05:16:48;;;;;;;43.47;20.60;;;3.80;99.90;;;;;;5073602;28;20094;-78
2022/12/02 05:19:13;;;;;;;43.58;21.05;;;3.90;99.90;;;;;;5073635;28;20025;-77
2022/12/02 05:21:39;;;;;;;40.70;18.40;;;3.90;99.90;;;;;;5072095;28;20360;-77
2022/12/02 05:24:05;;;;;;;49.92;16.52;;;3.90;99.90;;;;;;5073546;28;20028;-73
2022/12/02 05:26:31;;;;;;;30.98;15.77;;;3.80;99.90;;;;;;5073617;28;20024;-75
2022/12/02 05:28:57;;;;;;;28.35;13.50;;;3.80;99.90;;;;;;5073398;28;20036;-77
2022/12/02 05:31:23;;;;;;;42.90;14.25;;;3.80;99.90;;;;;;5073419;28;20114;-76
2022/12/02 05:33:48;;;;;;;22.80;10.65;;;3.80;99.90;;;;;;5073525;28;20059;-75
2022/12/02 05:36:14;;;;;;;26.98;13.73;;;3.80;99.90;;;;;;5073574;28;20020;-75
2022/12/02 05:38:40;;;;;;;26.42;11.07;;;3.90;99.90;;;;;;5072816;28;20117;-75
2022/12/02 05:41:07;;;;;;;38.22;14.20;;;3.90;99.90;;;;;;5072739;28;20021;-77
2022/12/02 05:43:38;;;;;;;30.98;13.07;;;3.90;99.90;;;;;;5073279;28;20158;-76
2022/12/02 05:46:15;;;;;;;23.40;10.67;;;3.90;99.90;;;;;;5072913;28;20052;-76
2022/12/02 05:48:42;;;;;;;26.50;12.50;;;3.80;99.90;;;;;;5072563;28;20074;-76
2022/12/02 05:51:16;;;;;;;31.85;13.20;;;3.80;99.90;;;;;;5072589;28;20101;-76
2022/12/02 05:53:43;;;;;;;30.73;12.50;;;3.90;99.90;;;;;;5073190;28;20064;-77
2022/12/02 05:56:22;;;;;;;40.95;13.50;;;3.90;99.90;;;;;;5073247;28;20349;-76
2022/12/02 05:58:48;;;;;;;40.95;17.70;;;3.90;99.90;;;;;;5073377;28;20042;-75
2022/12/02 06:01:31;;;;;;;40.20;18.30;;;3.90;99.90;;;;;;5073528;28;20113;-76
2022/12/02 06:03:57;;;;;;;54.80;22.75;;;3.90;99.90;;;;;;5073631;28;20451;-75
2022/12/02 06:06:29;;;;;;;53.58;27.83;;;3.90;99.90;;;;;;5073585;28;20099;-76
2022/12/02 06:08:55;;;;;;;56.38;27.45;;;3.90;99.90;;;;;;5073486;28;20020;-76
2022/12/02 06:11:21;;;;;;;42.45;19.38;;;4.00;99.90;;;;;;5073790;28;20086;-76
2022/12/02 06:13:47;;;;;;;37.58;18.40;;;3.90;99.90;;;;;;5073449;28;20028;-76
2022/12/02 06:16:21;;;;;;;39.80;18.58;;;3.90;99.90;;;;;;5073042;28;20066;-76
2022/12/02 06:18:47;;;;;;;46.33;21.25;;;4.00;99.90;;;;;;5073673;28;20174;-76
2022/12/02 06:21:17;;;;;;;43.70;22.38;;;4.00;99.90;;;;;;5073115;28;20127;-76
2022/12/02 06:23:45;;;;;;;50.15;20.13;;;4.00;99.90;;;;;;5072981;28;20452;-76
2022/12/02 06:26:15;;;;;;;51.75;20.73;;;4.00;99.90;;;;;;5073155;28;20032;-75
2022/12/02 06:28:43;;;;;;;55.20;25.33;;;4.00;99.90;;;;;;5073819;28;20028;-76
2022/12/02 06:31:17;;;;;;;37.53;16.88;;;4.10;99.90;;;;;;5073456;28;20087;-76
2022/12/02 06:33:46;;;;;;;29.10;15.90;;;4.10;99.90;;;;;;5073272;28;20035;-77
2022/12/02 06:36:24;;;;;;;38.47;19.40;;;4.10;99.90;;;;;;5073319;28;20086;-78
2022/12/02 06:38:54;;;;;;;43.72;20.80;;;4.10;99.90;;;;;;5073417;28;20017;-75
2022/12/02 06:41:25;;;;;;;55.95;23.48;;;4.10;99.90;;;;;;5073243;28;20104;-76
2022/12/02 06:46:41;;;;;;;47.20;22.75;;;4.20;99.90;;;;;;5073112;28;20035;-78
2022/12/02 06:49:22;;;;;;;44.15;22.45;;;4.20;99.90;;;;;;5072811;28;20017;-77
2022/12/02 06:51:55;;;;;;;51.15;26.08;;;4.20;99.90;;;;;;5073159;28;20027;-75
2022/12/02 06:54:25;;;;;;;53.75;27.42;;;4.20;99.90;;;;;;5073487;28;20032;-75
2022/12/02 06:56:51;;;;;;;64.65;31.42;;;4.20;99.90;;;;;;5072877;28;20017;-76
2022/12/02 06:59:21;;;;;;;53.03;26.45;;;4.20;99.90;;;;;;5073436;28;20466;-78
2022/12/02 07:01:47;;;;;;;69.07;30.83;;;4.20;99.90;;;;;;5076351;28;20028;-76
2022/12/02 07:04:25;;;;;;;57.80;27.33;;;4.20;99.90;;;;;;5076127;28;20089;-75
2022/12/02 07:06:54;;;;;;;121.35;53.00;;;4.30;99.90;;;;;;5076700;28;20029;-75
2022/12/02 07:09:50;;;;;;;79.07;34.92;;;4.30;99.90;;;;;;5076475;28;20530;-77
2022/12/02 07:12:34;;;;;;;136.55;55.08;;;4.30;99.90;;;;;;5075359;28;20052;-76
2022/12/02 07:15:09;;;;;;;125.65;53.83;;;4.30;99.90;;;;;;5075138;28;20094;-76
2022/12/02 07:17:37;;;;;;;160.32;57.13;;;4.30;99.90;;;;;;5076632;28;20020;-76
2022/12/02 07:20:05;;;;;;;147.00;70.35;;;4.30;99.90;;;;;;5076133;28;20061;-76
2022/12/02 07:22:47;;;;;;;124.45;46.17;;;4.20;99.90;;;;;;5076154;28;20028;-76
2022/12/02 07:25:33;;;;;;;103.03;41.60;;;4.20;99.90;;;;;;5075960;28;20036;-76
2022/12/02 07:28:00;;;;;;;96.82;37.72;;;4.30;99.90;;;;;;5076330;28;20656;-75
2022/12/02 07:30:35;;;;;;;109.72;41.03;;;4.30;99.90;;;;;;5076058;28;20016;-76
2022/12/02 07:33:02;;;;;;;105.97;38.38;;;4.20;99.90;;;;;;5075713;28;20036;-76
2022/12/02 07:35:28;;;;;;;122.45;42.90;;;4.30;99.90;;;;;;5076071;28;20016;-76
2022/12/02 07:37:54;;;;;;;151.95;50.00;;;4.20;99.90;;;;;;5075806;28;20019;-77
2022/12/02 07:40:20;;;;;;;182.30;61.95;;;4.20;99.90;;;;;;5074740;28;20025;-75
2022/12/02 07:42:46;;;;;;;109.43;45.50;;;4.30;99.90;;;;;;5075589;28;20115;-77
2022/12/02 07:45:14;;;;;;;84.32;37.58;;;4.30;99.90;;;;;;5072806;28;20031;-77
2022/12/02 07:47:40;;;;;;;68.43;31.13;;;4.30;99.90;;;;;;5075526;28;20139;-76
2022/12/02 07:50:07;;;;;;;108.93;47.22;;;4.30;99.90;;;;;;5075965;28;20052;-77
2022/12/02 07:52:33;;;;;;;75.55;36.22;;;4.40;99.90;;;;;;5075379;28;20047;-76
2022/12/02 07:55:00;;;;;;;78.35;39.03;;;4.40;99.90;;;;;;5073097;28;20032;-77
2022/12/02 07:57:27;;;;;;;61.35;30.60;;;4.40;99.90;;;;;;5075096;28;20028;-78
2022/12/02 07:59:53;;;;;;;126.68;50.95;;;4.50;99.90;;;;;;5075584;28;20027;-77
2022/12/02 08:02:18;;;;;;;72.47;32.33;;;4.60;99.90;;;;;;5075063;28;20394;-75
2022/12/02 08:04:44;;;;;;;62.83;28.35;;;4.60;99.90;;;;;;5075419;28;20028;-76
2022/12/02 08:07:10;;;;;;;41.22;18.17;;;4.70;99.90;;;;;;5075434;28;20107;-77
2022/12/02 08:09:36;;;;;;;47.13;22.30;;;4.60;99.90;;;;;;5073673;28;20021;-78
2022/12/02 08:12:03;;;;;;;58.42;25.13;;;4.60;99.90;;;;;;5073560;28;20450;-78
2022/12/02 08:14:28;;;;;;;41.75;21.23;;;4.60;99.90;;;;;;5073870;28;20337;-77
2022/12/02 08:16:54;;;;;;;41.42;19.73;;;4.60;99.90;;;;;;5074802;28;20064;-76
2022/12/02 08:19:20;;;;;;;39.90;18.67;;;4.70;99.90;;;;;;5075129;28;20023;-75
2022/12/02 08:21:46;;;;;;;51.25;22.23;;;4.70;99.90;;;;;;5074920;28;20035;-75
2022/12/02 08:24:12;;;;;;;37.53;17.23;;;4.70;99.90;;;;;;5074767;28;20108;-76
2022/12/02 08:26:39;;;;;;;42.53;18.92;;;4.70;99.90;;;;;;5074071;28;20447;-76
2022/12/02 08:29:05;;;;;;;46.58;24.15;;;4.80;99.90;;;;;;5074881;28;20056;-76
2022/12/02 08:31:30;;;;;;;260.45;91.63;;;4.80;99.90;;;;;;5074961;28;20017;-76
2022/12/02 08:33:56;;;;;;;61.30;27.33;;;4.90;99.90;;;;;;5074594;28;20502;-79
2022/12/02 08:36:22;;;;;;;55.90;25.90;;;4.90;99.90;;;;;;5074682;28;20436;-77
2022/12/02 08:38:48;;;;;;;62.53;30.48;;;5.00;99.90;;;;;;5074876;28;20074;-78
2022/12/02 08:41:15;;;;;;;71.45;31.70;;;5.00;99.90;;;;;;5074705;28;20027;-76
2022/12/02 08:43:41;;;;;;;240.48;118.88;;;5.00;99.90;;;;;;5074121;28;20036;-76
2022/12/02 08:46:08;;;;;;;119.88;72.72;;;5.10;99.90;;;;;;5074419;28;20021;-76
2022/12/02 08:48:34;;;;;;;93.10;41.33;;;5.20;99.90;;;;;;5074579;28;20027;-77
2022/12/02 08:51:00;;;;;;;97.47;43.80;;;5.20;99.90;;;;;;5074400;28;20021;-77
2022/12/02 08:53:25;;;;;;;96.30;44.45;;;5.40;99.90;;;;;;5074439;28;20021;-76
2022/12/02 08:55:51;;;;;;;63.40;29.90;;;5.30;99.90;;;;;;5074218;28;20502;-77
2022/12/02 08:58:17;;;;;;;43.28;23.40;;;5.40;99.90;;;;;;5074560;28;20498;-76
2022/12/02 09:00:43;;;;;;;52.92;26.10;;;5.30;99.90;;;;;;5074330;28;20031;-76
2022/12/02 09:03:09;;;;;;;42.50;23.98;;;5.40;99.90;;;;;;5074282;28;20032;-76
2022/12/02 09:05:36;;;;;;;41.17;19.20;;;5.50;99.90;;;;;;5074415;28;20052;-76
2022/12/02 09:08:03;;;;;;;31.23;16.42;;;5.50;99.90;;;;;;5074199;28;20017;-75
2022/12/02 09:10:30;;;;;;;48.75;22.65;;;5.30;99.90;;;;;;5074197;28;20024;-77
2022/12/02 09:12:56;;;;;;;45.38;23.65;;;5.40;99.90;;;;;;5074543;28;20024;-77
2022/12/02 09:15:22;;;;;;;100.28;35.70;;;5.50;99.90;;;;;;5073977;28;20417;-76
2022/12/02 09:17:49;;;;;;;121.25;59.20;;;5.50;99.90;;;;;;5074019;28;20024;-76
2022/12/02 09:20:16;;;;;;;42.83;20.83;;;5.50;99.90;;;;;;5074428;28;20019;-76
2022/12/02 09:22:44;;;;;;;588.05;286.20;;;5.40;99.90;;;;;;5073407;28;20036;-76
2022/12/02 09:25:10;;;;;;;321.42;167.65;;;5.50;99.90;;;;;;5073674;28;20379;-76
2022/12/02 09:27:36;;;;;;;85.40;48.38;;;5.40;99.90;;;;;;5074050;28;20100;-77
2022/12/02 09:30:03;;;;;;;85.38;47.33;;;5.50;99.90;;;;;;5074165;28;20031;-76
2022/12/02 09:32:28;;;;;;;48.35;24.33;;;5.60;99.90;;;;;;5073987;28;20459;-76
2022/12/02 09:34:55;;;;;;;153.90;79.38;;;5.60;99.90;;;;;;5074256;28;20104;-76
2022/12/02 09:37:21;;;;;;;106.20;53.35;;;5.70;99.90;;;;;;5073570;28;20025;-77
2022/12/02 09:39:47;;;;;;;138.93;71.32;;;5.70;99.90;;;;;;5072431;28;20055;-75
2022/12/02 09:42:14;;;;;;;102.95;50.55;;;5.80;99.90;;;;;;5073378;28;20480;-75
2022/12/02 09:44:42;;;;;;;234.25;122.97;;;6.00;99.90;;;;;;5073518;28;20443;-78
2022/12/02 09:47:08;;;;;;;46.85;25.83;;;6.00;99.90;;;;;;5073639;28;20032;-76
2022/12/02 09:49:34;;;;;;;51.50;24.52;;;6.10;99.90;;;;;;5073909;28;20017;-77
2022/12/02 09:52:03;;;;;;;81.50;39.28;;;6.10;99.90;;;;;;5073526;28;20020;-79
2022/12/02 09:54:29;;;;;;;55.30;27.65;;;6.10;99.90;;;;;;5072260;28;20029;-76
2022/12/02 09:56:56;;;;;;;53.70;29.40;;;6.00;99.90;;;;;;5073310;28;20028;-76
2022/12/02 09:59:22;;;;;;;179.07;83.80;;;6.00;99.90;;;;;;5073523;28;20031;-75
2022/12/02 10:01:49;;;;;;;123.40;57.33;;;6.00;99.90;;;;;;5073672;28;20092;-76
2022/12/02 10:04:21;;;;;;;138.50;67.65;;;6.10;99.90;;;;;;5073467;28;20024;-75
2022/12/02 10:06:47;;;;;;;56.17;30.95;;;6.20;99.90;;;;;;5073110;28;20371;-76
2022/12/02 10:09:16;;;;;;;40.25;23.20;;;6.10;99.90;;;;;;5073569;28;20447;-76
2022/12/02 10:11:42;;;;;;;24.42;13.52;;;6.10;99.90;;;;;;5073493;28;20028;-78
2022/12/02 10:14:13;;;;;;;33.42;18.30;;;6.10;99.90;;;;;;5073586;28;20029;-76
2022/12/02 10:16:39;;;;;;;69.43;32.45;;;6.10;99.90;;;;;;5073573;28;20044;-77
2022/12/02 10:19:05;;;;;;;60.35;29.63;;;6.20;99.90;;;;;;5073676;28;20063;-76
2022/12/02 10:21:32;;;;;;;64.97;33.97;;;6.20;99.90;;;;;;5073360;28;20025;-76
2022/12/02 10:24:12;;;;;;;72.15;32.67;;;6.20;99.90;;;;;;5073116;28;20017;-76
2022/12/02 10:26:55;;;;;;;46.85;24.80;;;6.30;99.90;;;;;;5073518;28;20020;-76
2022/12/02 10:29:31;;;;;;;71.18;31.17;;;6.30;99.90;;;;;;5073009;28;20024;-76
2022/12/02 10:32:02;;;;;;;76.07;37.28;;;6.40;99.90;;;;;;5073360;28;20093;-77
2022/12/02 10:34:29;;;;;;;39.70;19.25;;;6.40;99.90;;;;;;5074302;28;20025;-76
2022/12/02 10:36:55;;;;;;;116.63;46.47;;;6.50;99.90;;;;;;5077236;28;20020;-75
2022/12/02 10:39:21;;;;;;;88.88;38.42;;;6.50;99.90;;;;;;5077154;28;20474;-76
2022/12/02 10:42:02;;;;;;;74.40;36.13;;;6.60;99.90;;;;;;5076932;28;20020;-76
2022/12/02 10:44:28;;;;;;;47.80;26.83;;;6.70;99.90;;;;;;5077054;28;20027;-75
2022/12/02 10:47:15;;;;;;;59.35;32.90;;;6.60;99.90;;;;;;5076820;28;20052;-76
2022/12/02 10:49:59;;;;;;;35.60;20.95;;;6.60;99.90;;;;;;5076572;28;20028;-77
2022/12/02 10:52:37;;;;;;;203.35;91.95;;;6.60;99.90;;;;;;5076718;28;20028;-77
2022/12/02 10:55:04;;;;;;;70.20;34.70;;;6.60;99.90;;;;;;5076660;28;20020;-77
2022/12/02 10:57:32;;;;;;;71.50;35.95;;;6.50;99.90;;;;;;5076638;28;20029;-76
2022/12/02 11:00:03;;;;;;;73.90;37.65;;;6.70;99.90;;;;;;5076630;28;20024;-77
2022/12/02 11:02:36;;;;;;;32.17;15.60;;;6.80;99.90;;;;;;5076499;28;20031;-76
2022/12/02 11:05:13;;;;;;;696.72;368.17;;;6.90;99.90;;;;;;5076578;28;20039;-76
2022/12/02 11:07:39;;;;;;;143.95;68.63;;;7.00;99.90;;;;;;5076552;28;20017;-78
2022/12/02 11:10:06;;;;;;;128.70;59.58;;;7.10;99.90;;;;;;5076325;28;20340;-77
2022/12/02 11:12:50;;;;;;;269.00;155.13;;;7.20;99.90;;;;;;5075230;28;20028;-76
2022/12/02 11:15:34;;;;;;;40.05;21.50;;;7.30;99.90;;;;;;5076101;28;20036;-78
2022/12/02 11:18:00;;;;;;;50.20;32.92;;;7.30;99.90;;;;;;5076157;28;20032;-77
2022/12/02 11:20:35;;;;;;;55.45;28.67;;;7.30;99.90;;;;;;5075038;28;20042;-76
2022/12/02 11:23:00;;;;;;;76.30;45.30;;;7.40;99.90;;;;;;5075029;28;20470;-76
2022/12/02 11:25:41;;;;;;;61.97;38.83;;;7.50;99.90;;;;;;5076084;28;20025;-77
2022/12/02 11:28:29;;;;;;;40.33;21.67;;;7.70;99.90;;;;;;5075829;28;20024;-76
2022/12/02 11:31:09;;;;;;;33.97;17.95;;;7.70;99.90;;;;;;5076300;28;20032;-76
2022/12/02 11:33:50;;;;;;;37.78;19.48;;;7.90;99.90;;;;;;5076100;28;20032;-76
2022/12/02 11:36:21;;;;;;;33.88;19.13;;;7.90;99.90;;;;;;5075719;28;20433;-77
2022/12/02 11:38:50;;;;;;;32.97;18.65;;;7.80;99.90;;;;;;5075903;28;20063;-77
2022/12/02 11:41:20;;;;;;;53.80;27.10;;;8.00;99.90;;;;;;5076278;28;20509;-77
2022/12/02 11:43:46;;;;;;;129.88;76.32;;;8.00;99.90;;;;;;5075944;28;20107;-78
2022/12/02 11:46:17;;;;;;;35.45;19.73;;;8.20;99.90;;;;;;5074724;28;20435;-76
2022/12/02 11:48:51;;;;;;;90.80;43.08;;;8.40;99.90;;;;;;5075871;28;20045;-77
2022/12/02 11:51:38;;;;;;;159.10;84.28;;;8.70;99.90;;;;;;5075471;28;20083;-76
2022/12/02 11:54:04;;;;;;;60.72;24.08;;;8.80;99.90;;;;;;5075804;28;20029;-77
2022/12/02 11:56:39;;;;;;;35.08;20.75;;;8.70;99.90;;;;;;5075913;28;20024;-76
2022/12/02 11:59:25;;;;;;;22.35;12.82;;;8.60;99.90;;;;;;5075498;28;20443;-78
2022/12/02 12:02:10;;;;;;;36.92;17.35;;;8.70;99.90;;;;;;5074333;28;20020;-78
2022/12/02 12:04:36;;;;;;;78.00;40.40;;;8.90;99.90;;;;;;5075448;28;20052;-77
2022/12/02 12:07:01;;;;;;;117.80;68.97;;;8.90;99.90;;;;;;5075532;28;20061;-77
2022/12/02 12:09:28;;;;;;;38.88;21.13;;;8.70;99.90;;;;;;5074109;28;20016;-78
2022/12/02 12:12:07;;;;;;;37.20;20.40;;;8.50;99.90;;;;;;5075113;28;20074;-78
2022/12/02 12:14:33;;;;;;;49.78;26.58;;;8.40;99.90;;;;;;5075117;28;20077;-77
2022/12/02 12:17:29;;;;;;;112.35;70.88;;;8.30;99.90;;;;;;5075635;28;20049;-77
2022/12/02 12:19:55;;;;;;;43.63;21.17;;;8.20;99.90;;;;;;5073733;28;20021;-77
2022/12/02 12:22:26;;;;;;;78.00;34.38;;;8.30;99.90;;;;;;5075616;28;20077;-77
2022/12/02 12:24:52;;;;;;;44.80;21.80;;;8.20;99.90;;;;;;5073688;28;20494;-77
2022/12/02 12:27:36;;;;;;;36.47;19.05;;;8.20;99.90;;;;;;5075083;28;20107;-77
2022/12/02 12:30:04;;;;;;;51.33;22.73;;;8.00;99.90;;;;;;5073756;28;20496;-77
2022/12/02 12:32:30;;;;;;;80.35;50.70;;;7.80;99.90;;;;;;5074640;28;20021;-76
2022/12/02 12:34:56;;;;;;;77.20;47.78;;;7.70;99.90;;;;;;5074678;28;20096;-76
2022/12/02 12:37:22;;;;;;;141.02;82.15;;;7.60;99.90;;;;;;5074598;28;20107;-77
2022/12/02 12:39:48;;;;;;;132.88;75.18;;;7.50;99.90;;;;;;5074870;28;20363;-78
2022/12/02 12:42:14;;;;;;;118.75;62.65;;;7.60;99.90;;;;;;5074535;28;20104;-77
2022/12/02 12:44:39;;;;;;;142.73;80.15;;;7.50;99.90;;;;;;5074541;28;20031;-77
2022/12/02 12:47:06;;;;;;;118.88;60.97;;;7.50;99.90;;;;;;5073387;28;20030;-78